createdAt,value
2024-05-09T00:00:39.226Z,50.45
2024-05-09T00:01:30.161Z,50.43
2024-05-09T00:02:25.755Z,50.63
2024-05-09T00:03:21.259Z,50.43
2024-05-09T00:04:16.754Z,50.45
2024-05-09T00:05:12.331Z,51.06
2024-05-09T00:06:08.041Z,51.16
2024-05-09T00:07:03.355Z,51.26
2024-05-09T00:07:58.880Z,51.06
2024-05-09T00:08:54.406Z,50.93
2024-05-09T00:09:49.950Z,50.53
2024-05-09T00:10:45.610Z,50.73
2024-05-09T00:11:41.129Z,50.53
2024-05-09T00:12:36.552Z,51.14
2024-05-09T00:13:32.086Z,51.14
2024-05-09T00:14:27.720Z,51.44
2024-05-09T00:15:23.155Z,50.93
2024-05-09T00:16:18.702Z,51.34
2024-05-09T00:17:14.301Z,50.65
2024-05-09T00:18:10.009Z,51.24
2024-05-09T00:19:05.491Z,51.04
2024-05-09T00:20:00.945Z,51.16
2024-05-09T00:20:56.507Z,50.86
2024-05-09T00:21:51.991Z,50.96
2024-05-09T00:22:47.578Z,50.96
2024-05-09T00:23:43.124Z,50.56
2024-05-09T00:24:38.597Z,50.76
2024-05-09T00:25:23.240Z,50.86
2024-05-09T00:26:18.818Z,50.96
2024-05-09T00:27:14.327Z,50.96
2024-05-09T00:28:09.891Z,51.06
2024-05-09T00:29:05.429Z,51.16
2024-05-09T00:30:00.969Z,50.35
2024-05-09T00:30:57.090Z,50.56
2024-05-09T00:31:52.832Z,51.06
2024-05-09T00:32:48.354Z,51.16
2024-05-09T00:33:43.875Z,51.37
2024-05-09T00:34:39.266Z,51.98
2024-05-09T00:35:34.862Z,52.08
2024-05-09T00:36:30.351Z,51.39
2024-05-09T00:37:25.912Z,51.59
2024-05-09T00:38:21.598Z,51.16
2024-05-09T00:39:16.994Z,51.09
2024-05-09T00:40:22.293Z,51.90
2024-05-09T00:41:08.103Z,51.18
2024-05-09T00:42:03.600Z,51.70
2024-05-09T00:42:59.158Z,51.29
2024-05-09T00:43:54.762Z,51.18
2024-05-09T00:44:50.270Z,50.68
2024-05-09T00:45:45.822Z,51.59
2024-05-09T00:46:41.368Z,50.58
2024-05-09T00:47:37.007Z,51.70
2024-05-09T00:48:32.613Z,50.90
2024-05-09T00:49:28.102Z,51.09
2024-05-09T00:50:19.019Z,51.62
2024-05-09T00:50:57.296Z,51.09
2024-05-09T00:51:52.624Z,51.18
2024-05-09T00:52:37.290Z,50.78
2024-05-09T00:53:33.026Z,51.18
2024-05-09T00:54:28.358Z,51.18
2024-05-09T00:55:23.875Z,51.42
2024-05-09T00:56:19.453Z,51.92
2024-05-09T00:57:14.970Z,52.30
2024-05-09T00:58:10.550Z,52.12
2024-05-09T00:59:06.115Z,52.63
2024-05-09T01:00:01.635Z,52.33
2024-05-09T01:00:57.317Z,52.84
2024-05-09T01:01:52.830Z,52.03
2024-05-09T01:02:48.345Z,53.24
2024-05-09T01:03:45.947Z,52.63
2024-05-09T01:04:39.407Z,52.84
2024-05-09T01:05:35.526Z,53.55
2024-05-09T01:06:30.497Z,52.84
2024-05-09T01:07:25.956Z,53.27
2024-05-09T01:08:21.717Z,53.06
2024-05-09T01:09:17.023Z,52.96
2024-05-09T01:10:17.426Z,53.45
2024-05-09T01:11:08.284Z,52.94
2024-05-09T01:12:03.979Z,53.88
2024-05-09T01:12:59.213Z,53.98
2024-05-09T01:13:54.786Z,53.57
2024-05-09T01:14:50.275Z,53.37
2024-05-09T01:15:45.826Z,53.67
2024-05-09T01:16:41.386Z,53.67
2024-05-09T01:17:37.111Z,53.47
2024-05-09T01:18:32.507Z,53.27
2024-05-09T01:19:28.138Z,54.08
2024-05-09T01:20:32.118Z,53.67
2024-05-09T01:21:19.182Z,53.57
2024-05-09T01:22:14.630Z,54.11
2024-05-09T01:23:10.794Z,54.11
2024-05-09T01:24:06.306Z,53.80
2024-05-09T01:25:01.830Z,53.50
2024-05-09T01:25:57.409Z,53.50
2024-05-09T01:26:52.890Z,53.70
2024-05-09T01:27:48.434Z,53.80
2024-05-09T01:28:43.986Z,54.11
2024-05-09T01:29:39.498Z,54.41
2024-05-09T01:30:31.719Z,54.51
2024-05-09T01:31:19.720Z,54.00
2024-05-09T01:32:15.362Z,53.90
2024-05-09T01:33:12.233Z,53.47
2024-05-09T01:34:06.360Z,53.59
2024-05-09T01:35:01.874Z,54.11
2024-05-09T01:35:57.406Z,54.61
2024-05-09T01:36:52.946Z,54.74
2024-05-09T01:37:48.559Z,54.61
2024-05-09T01:38:44.073Z,54.85
2024-05-09T01:39:39.586Z,54.74
2024-05-09T01:40:38.491Z,54.94
2024-05-09T01:41:30.725Z,55.46
2024-05-09T01:42:26.188Z,54.85
2024-05-09T01:43:21.716Z,54.51
2024-05-09T01:44:17.311Z,54.51
2024-05-09T01:45:12.799Z,53.80
2024-05-09T01:46:08.322Z,54.61
2024-05-09T01:47:03.944Z,55.02
2024-05-09T01:47:59.768Z,54.41
2024-05-09T01:48:55.012Z,54.31
2024-05-09T01:49:50.546Z,54.64
2024-05-09T01:50:46.068Z,54.82
2024-05-09T01:51:41.563Z,54.61
2024-05-09T01:52:37.099Z,55.12
2024-05-09T01:53:21.860Z,54.64
2024-05-09T01:54:17.293Z,54.74
2024-05-09T01:55:12.862Z,55.25
2024-05-09T01:56:08.443Z,55.35
2024-05-09T01:57:03.922Z,54.72
2024-05-09T01:57:59.453Z,54.51
2024-05-09T01:58:55.028Z,54.94
2024-05-09T01:59:50.533Z,54.74
2024-05-09T02:00:46.132Z,54.94
2024-05-09T02:01:56.090Z,54.21
2024-05-09T02:02:37.303Z,54.74
2024-05-09T02:03:22.023Z,54.85
2024-05-09T02:04:17.482Z,54.64
2024-05-09T02:05:13.023Z,54.54
2024-05-09T02:06:08.699Z,55.05
2024-05-09T02:07:04.012Z,55.25
2024-05-09T02:07:59.569Z,55.79
2024-05-09T02:08:55.083Z,55.48
2024-05-09T02:09:50.613Z,55.68
2024-05-09T02:10:46.337Z,55.79
2024-05-09T02:11:41.846Z,55.18
2024-05-09T02:12:37.261Z,56.20
2024-05-09T02:13:32.789Z,55.68
2024-05-09T02:14:28.447Z,55.89
2024-05-09T02:15:23.866Z,56.29
2024-05-09T02:16:19.396Z,56.12
2024-05-09T02:17:15.016Z,55.71
2024-05-09T02:18:11.101Z,55.91
2024-05-09T02:19:06.115Z,55.71
2024-05-09T02:20:01.643Z,55.79
2024-05-09T02:20:57.118Z,56.09
2024-05-09T02:21:52.640Z,56.32
2024-05-09T02:22:48.210Z,56.12
2024-05-09T02:23:43.769Z,55.89
2024-05-09T02:24:39.266Z,56.12
2024-05-09T02:25:35.070Z,55.99
2024-05-09T02:26:30.376Z,56.02
2024-05-09T02:27:25.872Z,56.02
2024-05-09T02:28:21.404Z,56.12
2024-05-09T02:29:17.006Z,56.63
2024-05-09T02:30:18.962Z,56.32
2024-05-09T02:31:09.025Z,56.32
2024-05-09T02:32:04.625Z,56.63
2024-05-09T02:33:00.347Z,56.83
2024-05-09T02:33:55.803Z,57.04
2024-05-09T02:34:51.242Z,56.22
2024-05-09T02:35:35.995Z,56.93
2024-05-09T02:36:31.422Z,56.32
2024-05-09T02:37:26.951Z,56.42
2024-05-09T02:38:22.535Z,56.15
2024-05-09T02:39:18.024Z,55.84
2024-05-09T02:40:15.044Z,56.22
2024-05-09T02:41:09.144Z,56.24
2024-05-09T02:42:04.860Z,56.45
2024-05-09T02:43:00.146Z,56.63
2024-05-09T02:43:55.780Z,56.76
2024-05-09T02:44:51.202Z,56.35
2024-05-09T02:45:46.769Z,56.76
2024-05-09T02:46:42.288Z,56.55
2024-05-09T02:47:38.027Z,56.85
2024-05-09T02:48:33.412Z,56.96
2024-05-09T02:49:29.186Z,57.26
2024-05-09T02:50:33.127Z,57.50
2024-05-09T02:51:20.008Z,56.99
2024-05-09T02:52:15.545Z,57.29
2024-05-09T02:53:00.267Z,57.80
2024-05-09T02:53:55.748Z,56.99
2024-05-09T02:54:51.325Z,57.70
2024-05-09T02:55:46.879Z,57.50
2024-05-09T02:56:42.363Z,57.19
2024-05-09T02:57:37.900Z,57.80
2024-05-09T02:58:33.411Z,57.19
2024-05-09T02:59:29.050Z,57.90
2024-05-09T03:00:29.959Z,57.80
2024-05-09T03:01:20.107Z,58.11
2024-05-09T03:02:15.664Z,57.60
2024-05-09T03:03:13.484Z,57.70
2024-05-09T03:04:06.910Z,57.90
2024-05-09T03:05:02.244Z,57.80
2024-05-09T03:05:57.762Z,57.50
2024-05-09T03:06:53.315Z,57.93
2024-05-09T03:07:48.848Z,58.31
2024-05-09T03:08:44.390Z,58.03
2024-05-09T03:09:39.885Z,58.14
2024-05-09T03:10:37.765Z,58.95
2024-05-09T03:11:31.082Z,58.37
2024-05-09T03:12:26.560Z,58.14
2024-05-09T03:13:22.094Z,57.83
2024-05-09T03:14:17.608Z,57.96
2024-05-09T03:15:13.090Z,58.34
2024-05-09T03:16:08.660Z,58.34
2024-05-09T03:17:04.236Z,59.05
2024-05-09T03:18:00.124Z,59.18
2024-05-09T03:18:55.379Z,59.18
2024-05-09T03:19:50.814Z,58.67
2024-05-09T03:20:46.360Z,58.64
2024-05-09T03:21:41.865Z,58.85
2024-05-09T03:22:37.394Z,59.18
2024-05-09T03:23:32.984Z,59.28
2024-05-09T03:24:28.472Z,58.98
2024-05-09T03:25:23.977Z,60.13
2024-05-09T03:26:19.570Z,60.53
2024-05-09T03:27:15.041Z,60.03
2024-05-09T03:28:10.570Z,59.92
2024-05-09T03:29:06.168Z,59.72
2024-05-09T03:30:02.013Z,58.91
2024-05-09T03:30:57.186Z,59.80
2024-05-09T03:31:52.902Z,60.33
2024-05-09T03:32:48.494Z,60.13
2024-05-09T03:33:44.013Z,60.44
2024-05-09T03:34:39.358Z,60.03
2024-05-09T03:35:34.925Z,59.80
2024-05-09T03:36:30.410Z,59.39
2024-05-09T03:37:25.952Z,59.72
2024-05-09T03:38:21.532Z,59.52
2024-05-09T03:39:17.012Z,59.49
2024-05-09T03:40:20.263Z,58.87
2024-05-09T03:41:08.172Z,59.31
2024-05-09T03:42:03.648Z,60.33
2024-05-09T03:42:59.158Z,60.53
2024-05-09T03:43:54.735Z,60.44
2024-05-09T03:44:50.228Z,60.44
2024-05-09T03:45:45.896Z,60.44
2024-05-09T03:46:41.345Z,60.13
2024-05-09T03:47:37.000Z,60.33
2024-05-09T03:48:32.514Z,60.44
2024-05-09T03:49:27.993Z,60.44
2024-05-09T03:50:30.103Z,60.33
2024-05-09T03:51:19.038Z,60.03
2024-05-09T03:52:14.557Z,60.33
2024-05-09T03:53:00.418Z,59.82
2024-05-09T03:53:55.744Z,59.92
2024-05-09T03:54:51.315Z,60.03
2024-05-09T03:55:46.848Z,59.92
2024-05-09T03:56:42.477Z,60.44
2024-05-09T03:57:37.873Z,60.03
2024-05-09T03:58:33.449Z,60.13
2024-05-09T03:59:29.013Z,60.33
2024-05-09T04:00:31.207Z,60.23
2024-05-09T04:01:20.078Z,60.33
2024-05-09T04:02:15.652Z,60.53
2024-05-09T04:03:12.758Z,61.18
2024-05-09T04:04:06.724Z,61.05
2024-05-09T04:05:02.346Z,61.38
2024-05-09T04:05:57.751Z,62.33
2024-05-09T04:06:53.311Z,62.43
2024-05-09T04:07:48.876Z,62.63
2024-05-09T04:08:44.414Z,63.04
2024-05-09T04:09:29.054Z,62.84
2024-05-09T04:10:31.254Z,62.84
2024-05-09T04:11:20.213Z,62.74
2024-05-09T04:12:15.762Z,62.63
2024-05-09T04:13:11.237Z,62.95
2024-05-09T04:14:06.809Z,62.74
2024-05-09T04:15:02.317Z,62.74
2024-05-09T04:15:57.823Z,62.74
2024-05-09T04:16:53.379Z,63.45
2024-05-09T04:17:49.619Z,62.95
2024-05-09T04:18:44.961Z,62.84
2024-05-09T04:19:40.416Z,62.63
2024-05-09T04:20:39.418Z,62.63
2024-05-09T04:21:31.539Z,63.66
2024-05-09T04:22:16.202Z,62.84
2024-05-09T04:23:12.107Z,62.20
2024-05-09T04:24:07.275Z,62.10
2024-05-09T04:25:02.799Z,62.40
2024-05-09T04:25:58.411Z,61.46
2024-05-09T04:26:53.896Z,61.56
2024-05-09T04:27:49.419Z,61.56
2024-05-09T04:28:44.984Z,60.74
2024-05-09T04:29:40.550Z,60.74
2024-05-09T04:30:39.361Z,61.97
2024-05-09T04:31:31.610Z,61.35
2024-05-09T04:32:27.357Z,61.66
2024-05-09T04:33:23.034Z,61.35
2024-05-09T04:34:18.268Z,61.35
2024-05-09T04:35:02.941Z,60.74
2024-05-09T04:35:58.349Z,62.07
2024-05-09T04:36:53.887Z,61.46
2024-05-09T04:37:49.476Z,61.15
2024-05-09T04:38:45.037Z,61.25
2024-05-09T04:39:40.549Z,61.46
2024-05-09T04:40:37.412Z,61.32
2024-05-09T04:41:31.687Z,61.56
2024-05-09T04:42:27.159Z,60.71
2024-05-09T04:43:22.729Z,61.22
2024-05-09T04:44:18.294Z,61.22
2024-05-09T04:45:13.797Z,61.53
2024-05-09T04:46:09.333Z,61.22
2024-05-09T04:47:04.921Z,62.35
2024-05-09T04:48:01.049Z,61.40
2024-05-09T04:48:56.025Z,61.32
2024-05-09T04:49:51.586Z,61.43
2024-05-09T04:50:47.126Z,61.19
2024-05-09T04:51:42.602Z,60.58
2024-05-09T04:52:38.128Z,60.28
2024-05-09T04:53:33.790Z,61.30
2024-05-09T04:54:35.855Z,61.91
2024-05-09T04:55:24.759Z,61.32
2024-05-09T04:56:20.338Z,61.22
2024-05-09T04:57:15.840Z,62.35
2024-05-09T04:58:11.376Z,61.32
2024-05-09T04:59:06.980Z,60.28
2024-05-09T05:00:03.023Z,60.78
2024-05-09T05:00:58.084Z,60.38
2024-05-09T05:01:53.777Z,60.58
2024-05-09T05:02:49.206Z,58.78
2024-05-09T05:03:44.937Z,60.51
2024-05-09T05:04:40.215Z,60.28
2024-05-09T05:05:35.818Z,59.97
2024-05-09T05:06:31.307Z,59.77
2024-05-09T05:07:26.851Z,60.38
2024-05-09T05:08:22.443Z,60.05
2024-05-09T05:09:17.902Z,58.82
2024-05-09T05:10:21.397Z,59.12
2024-05-09T05:11:09.044Z,59.43
2024-05-09T05:12:04.703Z,58.92
2024-05-09T05:12:49.211Z,59.33
2024-05-09T05:13:44.812Z,59.23
2024-05-09T05:14:41.393Z,58.62
2024-05-09T05:15:36.856Z,58.92
2024-05-09T05:16:21.588Z,58.51
2024-05-09T05:17:17.106Z,58.21
2024-05-09T05:18:12.730Z,58.01
2024-05-09T05:19:10.904Z,58.11
2024-05-09T05:20:04.830Z,58.08
2024-05-09T05:20:59.413Z,58.31
2024-05-09T05:21:54.784Z,58.92
2024-05-09T05:22:50.436Z,58.92
2024-05-09T05:23:45.934Z,58.08
2024-05-09T05:24:41.415Z,57.87
2024-05-09T05:25:36.950Z,57.78
2024-05-09T05:26:32.773Z,57.26
2024-05-09T05:27:28.081Z,57.26
2024-05-09T05:28:23.891Z,57.26
2024-05-09T05:29:20.808Z,57.47
2024-05-09T05:30:21.245Z,57.98
2024-05-09T05:31:10.387Z,57.57
2024-05-09T05:32:05.993Z,57.37
2024-05-09T05:33:01.620Z,56.83
2024-05-09T05:33:57.047Z,57.65
2024-05-09T05:34:52.630Z,57.54
2024-05-09T05:35:48.180Z,57.54
2024-05-09T05:36:43.617Z,57.44
2024-05-09T05:37:44.208Z,56.73
2024-05-09T05:38:39.757Z,57.44
2024-05-09T05:39:35.236Z,57.34
2024-05-09T05:40:36.354Z,57.04
2024-05-09T05:41:26.383Z,57.34
2024-05-09T05:42:21.857Z,56.81
2024-05-09T05:43:17.447Z,56.40
2024-05-09T05:44:12.990Z,56.70
2024-05-09T05:45:09.885Z,56.70
2024-05-09T05:46:04.015Z,56.70
2024-05-09T05:46:59.611Z,56.09
2024-05-09T05:47:44.374Z,56.09
2024-05-09T05:48:39.886Z,55.86
2024-05-09T05:49:35.417Z,56.81
2024-05-09T05:50:35.566Z,56.27
2024-05-09T05:51:26.434Z,55.96
2024-05-09T05:52:21.952Z,55.86
2024-05-09T05:53:17.526Z,55.76
2024-05-09T05:54:13.006Z,56.14
2024-05-09T05:55:08.546Z,56.75
2024-05-09T05:56:04.119Z,56.14
2024-05-09T05:56:59.612Z,55.86
2024-05-09T05:57:55.748Z,57.39
2024-05-09T05:58:51.365Z,57.26
2024-05-09T05:59:46.839Z,57.56
2024-05-09T06:00:43.018Z,57.56
2024-05-09T06:01:37.971Z,56.75
2024-05-09T06:02:33.514Z,57.26
2024-05-09T06:03:29.034Z,58.58
2024-05-09T06:04:24.568Z,58.17
2024-05-09T06:05:20.113Z,58.35
2024-05-09T06:06:15.631Z,57.13
2024-05-09T06:07:11.156Z,57.13
2024-05-09T06:08:06.750Z,56.12
2024-05-09T06:09:02.221Z,56.12
2024-05-09T06:09:57.799Z,56.62
2024-05-09T06:10:53.447Z,57.13
2024-05-09T06:11:48.979Z,57.23
2024-05-09T06:12:44.440Z,57.13
2024-05-09T06:13:40.003Z,57.54
2024-05-09T06:14:35.568Z,57.64
2024-05-09T06:15:31.121Z,58.33
2024-05-09T06:16:26.646Z,57.61
2024-05-09T06:17:22.382Z,56.60
2024-05-09T06:18:18.120Z,56.57
2024-05-09T06:19:13.337Z,57.31
2024-05-09T06:20:16.632Z,56.39
2024-05-09T06:21:04.347Z,56.39
2024-05-09T06:21:59.882Z,57.38
2024-05-09T06:22:55.420Z,55.86
2024-05-09T06:23:49.009Z,57.05
2024-05-09T06:24:42.508Z,57.89
2024-05-09T06:25:36.347Z,57.68
2024-05-09T06:26:29.638Z,55.66
2024-05-09T06:27:23.149Z,56.98
2024-05-09T06:28:16.744Z,56.95
2024-05-09T06:29:10.290Z,57.76
2024-05-09T06:30:03.978Z,57.46
2024-05-09T06:30:57.314Z,56.34
2024-05-09T06:31:50.917Z,56.04
2024-05-09T06:32:44.527Z,55.71
2024-05-09T06:33:38.073Z,56.52
2024-05-09T06:34:31.637Z,56.62
2024-05-09T06:35:25.074Z,55.40
2024-05-09T06:36:18.494Z,54.90
2024-05-09T06:37:13.028Z,56.01
2024-05-09T06:37:56.708Z,55.27
2024-05-09T06:38:50.292Z,55.68
2024-05-09T06:39:44.799Z,57.20
2024-05-09T06:40:35.877Z,56.49
2024-05-09T06:41:22.010Z,55.65
2024-05-09T06:42:15.603Z,55.85
2024-05-09T06:43:09.149Z,54.94
2024-05-09T06:44:02.718Z,54.53
2024-05-09T06:44:56.338Z,53.83
2024-05-09T06:45:49.836Z,54.53
2024-05-09T06:46:43.417Z,54.51
2024-05-09T06:47:27.155Z,53.19
2024-05-09T06:48:21.455Z,54.41
2024-05-09T06:49:14.719Z,54.41
2024-05-09T06:50:13.360Z,54.92
2024-05-09T06:51:01.391Z,53.17
2024-05-09T06:51:54.848Z,54.28
2024-05-09T06:52:48.503Z,53.47
2024-05-09T06:53:42.069Z,52.06
2024-05-09T06:54:35.528Z,51.95
2024-05-09T06:55:29.054Z,53.78
2024-05-09T06:56:22.627Z,53.27
2024-05-09T06:57:16.107Z,53.34
2024-05-09T06:58:09.897Z,52.76
2024-05-09T06:59:03.300Z,52.03
2024-05-09T06:59:56.731Z,52.23
2024-05-09T07:00:50.298Z,53.02
2024-05-09T07:01:43.771Z,53.32
2024-05-09T07:02:37.479Z,51.70
2024-05-09T07:03:31.078Z,51.40
2024-05-09T07:04:24.505Z,51.09
2024-05-09T07:05:18.184Z,50.97
2024-05-09T07:06:11.676Z,51.15
2024-05-09T07:07:05.148Z,51.05
2024-05-09T07:07:59.719Z,50.84
2024-05-09T07:08:53.342Z,50.64
2024-05-09T07:09:47.006Z,51.03
2024-05-09T07:10:40.542Z,49.89
2024-05-09T07:11:35.269Z,50.19
2024-05-09T07:12:28.980Z,48.78
2024-05-09T07:13:23.340Z,49.36
2024-05-09T07:14:17.903Z,47.85
2024-05-09T07:15:11.508Z,48.35
2024-05-09T07:16:06.045Z,47.97
2024-05-09T07:16:49.833Z,48.05
2024-05-09T07:17:44.475Z,48.47
2024-05-09T07:18:38.095Z,48.37
2024-05-09T07:19:31.577Z,48.58
2024-05-09T07:20:33.721Z,48.58
2024-05-09T07:21:18.685Z,48.19
2024-05-09T07:22:12.113Z,48.70
2024-05-09T07:23:05.793Z,48.90
2024-05-09T07:23:59.308Z,48.39
2024-05-09T07:24:52.960Z,49.51
2024-05-09T07:25:46.699Z,48.90
2024-05-09T07:26:40.157Z,48.30
2024-05-09T07:27:33.587Z,48.42
2024-05-09T07:28:27.137Z,48.02
2024-05-09T07:29:20.727Z,48.42
2024-05-09T07:30:20.084Z,49.22
2024-05-09T07:30:57.859Z,48.70
2024-05-09T07:31:51.441Z,49.01
2024-05-09T07:32:45.245Z,48.90
2024-05-09T07:33:38.534Z,48.70
2024-05-09T07:34:32.100Z,48.60
2024-05-09T07:35:25.647Z,48.39
2024-05-09T07:36:19.063Z,47.79
2024-05-09T07:37:12.798Z,47.49
2024-05-09T07:38:06.243Z,48.10
2024-05-09T07:38:59.701Z,46.58
2024-05-09T07:39:53.223Z,48.90
2024-05-09T07:40:46.902Z,47.77
2024-05-09T07:41:40.338Z,47.39
2024-05-09T07:42:33.797Z,47.19
2024-05-09T07:43:27.336Z,47.79
2024-05-09T07:44:20.902Z,48.50
2024-05-09T07:45:29.932Z,48.37
2024-05-09T07:47:13.751Z,47.97
2024-05-09T07:47:52.506Z,48.88
2024-05-09T07:49:12.734Z,48.17
2024-05-09T07:53:29.743Z,46.53
2024-05-09T07:53:36.965Z,46.43
2024-05-09T07:53:57.103Z,45.93
2024-05-09T07:54:49.815Z,46.43
2024-05-09T07:55:45.433Z,46.53
2024-05-09T07:56:41.163Z,46.33
2024-05-09T07:57:36.350Z,45.83
2024-05-09T07:58:31.854Z,45.62
2024-05-09T07:59:27.401Z,45.50
2024-05-09T08:00:29.741Z,45.83
2024-05-09T08:01:18.701Z,46.03
2024-05-09T08:02:14.206Z,46.43
2024-05-09T08:03:09.730Z,46.31
2024-05-09T08:04:05.216Z,46.31
2024-05-09T08:04:53.002Z,45.90
2024-05-09T08:05:48.403Z,45.50
2024-05-09T08:06:44.003Z,45.58
2024-05-09T08:07:39.521Z,44.98
2024-05-09T08:08:35.097Z,44.67
2024-05-09T08:09:30.663Z,44.37
2024-05-09T08:10:28.959Z,44.27
2024-05-09T08:11:21.790Z,44.67
2024-05-09T08:12:17.287Z,43.57
2024-05-09T08:13:12.858Z,43.66
2024-05-09T08:14:08.348Z,44.47
2024-05-09T08:15:03.876Z,44.47
2024-05-09T08:15:59.526Z,44.78
2024-05-09T08:16:55.022Z,45.38
2024-05-09T08:17:50.642Z,44.47
2024-05-09T08:18:46.143Z,44.55
2024-05-09T08:19:41.695Z,44.87
2024-05-09T08:20:37.182Z,44.35
2024-05-09T08:21:32.756Z,45.46
2024-05-09T08:22:28.295Z,43.85
2024-05-09T08:23:24.066Z,43.65
2024-05-09T08:24:19.426Z,44.53
2024-05-09T08:25:04.158Z,43.95
2024-05-09T08:25:48.830Z,44.02
2024-05-09T08:26:44.376Z,43.10
2024-05-09T08:27:39.956Z,44.31
2024-05-09T08:28:35.483Z,43.91
2024-05-09T08:29:31.028Z,41.06
2024-05-09T08:30:33.176Z,41.09
2024-05-09T08:31:22.191Z,42.10
2024-05-09T08:32:17.663Z,40.58
2024-05-09T08:33:13.293Z,41.19
2024-05-09T08:34:08.911Z,42.19
2024-05-09T08:35:04.359Z,42.60
2024-05-09T08:35:59.855Z,43.40
2024-05-09T08:36:57.532Z,42.88
2024-05-09T08:37:50.950Z,41.77
2024-05-09T08:38:46.481Z,42.98
2024-05-09T08:39:42.752Z,42.66
2024-05-09T08:40:38.544Z,40.63
2024-05-09T08:41:33.707Z,40.92
2024-05-09T08:42:29.318Z,39.50
2024-05-09T08:43:24.833Z,40.00
2024-05-09T08:44:20.339Z,40.48
2024-05-09T08:45:15.876Z,39.18
2024-05-09T08:46:11.592Z,39.86
2024-05-09T08:47:07.024Z,38.66
2024-05-09T08:48:02.637Z,39.95
2024-05-09T08:48:58.220Z,38.62
2024-05-09T08:49:53.688Z,38.20
2024-05-09T08:50:49.202Z,38.89
2024-05-09T08:51:44.722Z,37.68
2024-05-09T08:52:29.367Z,38.27
2024-05-09T08:53:24.915Z,37.46
2024-05-09T08:54:20.449Z,37.37
2024-05-09T08:55:05.473Z,36.96
2024-05-09T08:56:00.718Z,37.15
2024-05-09T08:56:56.260Z,37.33
2024-05-09T08:57:51.830Z,36.21
2024-05-09T08:58:47.331Z,35.61
2024-05-09T08:59:42.875Z,35.61
2024-05-09T09:00:38.503Z,35.51
2024-05-09T09:01:34.200Z,35.71
2024-05-09T09:02:18.914Z,35.69
2024-05-09T09:03:14.247Z,34.50
2024-05-09T09:04:09.837Z,34.30
2024-05-09T09:04:54.509Z,34.00
2024-05-09T09:05:50.037Z,35.60
2024-05-09T09:06:45.567Z,34.58
2024-05-09T09:07:41.030Z,34.56
2024-05-09T09:08:36.595Z,35.85
2024-05-09T09:09:32.185Z,34.26
2024-05-09T09:10:32.057Z,34.05
2024-05-09T09:11:12.435Z,35.14
2024-05-09T09:12:10.170Z,33.13
2024-05-09T09:13:03.489Z,32.33
2024-05-09T09:13:58.996Z,33.03
2024-05-09T09:14:54.549Z,33.22
2024-05-09T09:15:50.372Z,32.32
2024-05-09T09:16:45.624Z,32.53
2024-05-09T09:17:41.259Z,31.72
2024-05-09T09:18:36.949Z,32.60
2024-05-09T09:19:32.357Z,30.29
2024-05-09T09:20:34.033Z,32.48
2024-05-09T09:21:23.985Z,29.90
2024-05-09T09:22:19.849Z,31.19
2024-05-09T09:23:15.097Z,31.57
2024-05-09T09:24:10.605Z,30.08
2024-05-09T09:25:06.238Z,28.50
2024-05-09T09:26:01.831Z,30.01
2024-05-09T09:26:57.253Z,30.77
2024-05-09T09:27:52.868Z,30.38
2024-05-09T09:28:48.345Z,30.66
2024-05-09T09:29:43.892Z,29.35
2024-05-09T09:30:39.602Z,29.05
2024-05-09T09:31:35.087Z,28.16
2024-05-09T09:32:30.661Z,29.14
2024-05-09T09:33:26.177Z,28.74
2024-05-09T09:34:21.798Z,29.72
2024-05-09T09:35:06.398Z,28.83
2024-05-09T09:35:51.037Z,28.05
2024-05-09T09:36:46.581Z,28.25
2024-05-09T09:37:31.263Z,27.55
2024-05-09T09:38:26.837Z,28.43
2024-05-09T09:39:22.387Z,28.93
2024-05-09T09:40:18.481Z,29.33
2024-05-09T09:41:13.562Z,28.12
2024-05-09T09:42:09.013Z,28.72
2024-05-09T09:43:04.604Z,29.11
2024-05-09T09:44:00.152Z,28.70
2024-05-09T09:45:03.903Z,27.31
2024-05-09T09:45:51.450Z,26.22
2024-05-09T09:46:46.775Z,28.01
2024-05-09T09:47:42.588Z,27.99
2024-05-09T09:48:38.029Z,27.89
2024-05-09T09:49:33.535Z,26.10
2024-05-09T09:50:34.290Z,27.10
2024-05-09T09:51:24.559Z,26.50
2024-05-09T09:52:20.166Z,27.99
2024-05-09T09:53:15.697Z,28.29
2024-05-09T09:54:11.182Z,28.67
2024-05-09T09:55:06.755Z,28.38
2024-05-09T09:56:02.301Z,27.87
2024-05-09T09:56:57.850Z,28.06
2024-05-09T09:57:53.504Z,26.87
2024-05-09T09:58:48.963Z,27.37
2024-05-09T09:59:44.543Z,27.46
2024-05-09T10:00:40.261Z,28.53
2024-05-09T10:01:35.979Z,27.55
2024-05-09T10:02:31.451Z,27.84
2024-05-09T10:03:26.747Z,25.95
2024-05-09T10:04:22.499Z,26.54
2024-05-09T10:05:17.878Z,27.03
2024-05-09T10:06:13.333Z,26.54
2024-05-09T10:07:08.979Z,26.33
2024-05-09T10:08:04.414Z,25.44
2024-05-09T10:09:00.013Z,26.43
2024-05-09T10:09:55.665Z,26.82
2024-05-09T10:10:51.245Z,25.44
2024-05-09T10:11:51.822Z,27.51
2024-05-09T10:12:42.233Z,25.25
2024-05-09T10:13:37.781Z,26.56
2024-05-09T10:14:33.334Z,26.85
2024-05-09T10:15:28.977Z,27.14
2024-05-09T10:16:24.711Z,27.22
2024-05-09T10:17:20.016Z,26.61
2024-05-09T10:18:15.996Z,23.56
2024-05-09T10:19:11.272Z,25.25
2024-05-09T10:20:14.463Z,25.15
2024-05-09T10:21:02.193Z,26.43
2024-05-09T10:21:57.899Z,25.54
2024-05-09T10:22:53.401Z,26.42
2024-05-09T10:23:48.943Z,26.42
2024-05-09T10:24:44.515Z,25.03
2024-05-09T10:25:40.655Z,25.81
2024-05-09T10:26:36.266Z,26.90
2024-05-09T10:27:31.890Z,27.00
2024-05-09T10:28:27.680Z,25.71
2024-05-09T10:29:22.985Z,25.61
2024-05-09T10:30:25.868Z,26.12
2024-05-09T10:31:14.278Z,26.10
2024-05-09T10:32:09.679Z,26.50
2024-05-09T10:33:05.282Z,26.70
2024-05-09T10:34:01.077Z,25.21
2024-05-09T10:34:56.360Z,25.32
2024-05-09T10:35:51.846Z,25.51
2024-05-09T10:36:47.445Z,26.01
2024-05-09T10:37:42.933Z,26.09
2024-05-09T10:38:38.475Z,25.32
2024-05-09T10:39:34.059Z,25.72
2024-05-09T10:40:31.712Z,26.06
2024-05-09T10:41:25.103Z,26.12
2024-05-09T10:42:09.756Z,23.87
2024-05-09T10:43:06.553Z,21.76
2024-05-09T10:44:00.901Z,21.75
2024-05-09T10:44:56.453Z,21.49
2024-05-09T10:45:52.031Z,20.09
2024-05-09T10:46:36.674Z,20.51
2024-05-09T10:47:32.326Z,20.91
2024-05-09T10:48:28.150Z,20.30
2024-05-09T10:49:23.403Z,20.94
2024-05-09T10:50:25.537Z,19.93
2024-05-09T10:51:14.472Z,20.19
2024-05-09T10:52:10.042Z,19.96
2024-05-09T10:53:05.591Z,18.01
2024-05-09T10:54:01.135Z,18.68
2024-05-09T10:54:56.761Z,18.58
2024-05-09T10:55:52.281Z,18.27
2024-05-09T10:56:47.826Z,17.47
2024-05-09T10:57:43.498Z,17.74
2024-05-09T10:58:38.999Z,17.08
2024-05-09T10:59:23.702Z,16.88
2024-05-09T11:00:27.462Z,15.64
2024-05-09T11:01:14.874Z,16.71
2024-05-09T11:02:10.500Z,15.56
2024-05-09T11:03:06.028Z,17.00
2024-05-09T11:04:01.696Z,15.64
2024-05-09T11:04:57.125Z,17.08
2024-05-09T11:05:52.671Z,16.19
2024-05-09T11:06:48.145Z,16.20
2024-05-09T11:07:43.666Z,15.31
2024-05-09T11:08:39.270Z,16.16
2024-05-09T11:09:34.830Z,16.35
2024-05-09T11:10:27.123Z,15.18
2024-05-09T11:11:15.023Z,15.09
2024-05-09T11:12:10.652Z,16.05
2024-05-09T11:13:06.119Z,15.78
2024-05-09T11:14:01.661Z,16.35
2024-05-09T11:14:57.225Z,15.56
2024-05-09T11:15:52.858Z,16.03
2024-05-09T11:16:48.334Z,16.32
2024-05-09T11:17:44.019Z,15.55
2024-05-09T11:18:39.787Z,15.17
2024-05-09T11:19:35.089Z,15.07
2024-05-09T11:20:34.789Z,16.61
2024-05-09T11:21:26.209Z,15.55
2024-05-09T11:22:21.803Z,15.66
2024-05-09T11:23:17.335Z,15.75
2024-05-09T11:24:12.914Z,15.28
2024-05-09T11:25:08.493Z,15.86
2024-05-09T11:26:04.155Z,16.25
2024-05-09T11:26:59.596Z,16.16
2024-05-09T11:27:55.221Z,14.42
2024-05-09T11:28:51.097Z,15.39
2024-05-09T11:29:35.435Z,16.37
2024-05-09T11:30:32.366Z,16.19
2024-05-09T11:31:26.795Z,16.79
2024-05-09T11:32:22.211Z,17.19
2024-05-09T11:33:17.725Z,15.75
2024-05-09T11:34:13.309Z,16.74
2024-05-09T11:35:08.800Z,17.72
2024-05-09T11:36:04.347Z,16.66
2024-05-09T11:37:00.008Z,16.38
2024-05-09T11:37:55.525Z,16.88
2024-05-09T11:38:51.098Z,16.30
2024-05-09T11:39:46.666Z,16.99
2024-05-09T11:40:42.258Z,17.79
2024-05-09T11:41:37.780Z,18.88
2024-05-09T11:42:33.372Z,19.67
2024-05-09T11:43:29.023Z,19.18
2024-05-09T11:44:24.483Z,18.89
2024-05-09T11:45:20.035Z,20.28
2024-05-09T11:46:15.725Z,19.12
2024-05-09T11:47:11.207Z,20.19
2024-05-09T11:48:06.929Z,18.54
2024-05-09T11:49:02.438Z,18.63